Time;durP1;ratioP1;P1;durP2;ratioP2;P2;SDS_P1;SDS_P2;PMS_P1;PMS_P2;Temp;Humidity;BMP_temperature;BMP_pressure;BME280_temperature;BME280_humidity;BME280_pressure;Samples;Min_cycle;Max_cycle;Signal;HPM_P1;HPM_P2
2022/03/11 00:01:12;;;;;;;49.97;15.27;;;4.90;18.30;;;;;;4970220;28;20481;-63
2022/03/11 00:03:40;;;;;;;52.37;16.13;;;4.90;18.60;;;;;;4974839;28;20469;-62
2022/03/11 00:06:06;;;;;;;51.07;18.30;;;4.80;18.30;;;;;;4981177;28;20460;-63
2022/03/11 00:08:33;;;;;;;52.53;16.80;;;4.80;18.70;;;;;;4982496;28;20457;-64
2022/03/11 00:11:00;;;;;;;53.73;17.27;;;4.80;18.20;;;;;;4975061;28;20458;-62
2022/03/11 00:13:27;;;;;;;56.33;17.03;;;4.70;18.00;;;;;;4985198;28;20476;-63
2022/03/11 00:15:54;;;;;;;50.40;17.13;;;4.70;18.20;;;;;;4977658;28;20828;-62
2022/03/11 00:18:21;;;;;;;51.50;16.13;;;4.70;18.20;;;;;;4975737;28;20492;-63
2022/03/11 00:20:49;;;;;;;51.47;16.33;;;4.70;18.70;;;;;;4978152;28;20457;-62
2022/03/11 00:23:16;;;;;;;54.73;18.03;;;4.60;18.80;;;;;;4979624;28;20468;-61
2022/03/11 00:25:42;;;;;;;54.37;20.10;;;4.60;18.80;;;;;;4982535;28;20964;-61
2022/03/11 00:28:09;;;;;;;56.00;19.47;;;4.50;19.10;;;;;;4979930;28;20492;-62
2022/03/11 00:30:36;;;;;;;55.30;18.43;;;4.50;19.50;;;;;;4990643;28;20464;-62
2022/03/11 00:33:03;;;;;;;52.43;16.93;;;4.50;19.50;;;;;;4989302;28;20483;-64
2022/03/11 00:35:30;;;;;;;53.37;18.73;;;4.50;19.80;;;;;;4976147;28;20480;-62
2022/03/11 00:37:58;;;;;;;54.90;19.43;;;4.50;19.60;;;;;;4982356;28;20566;-62
2022/03/11 00:40:25;;;;;;;57.80;20.43;;;4.40;19.20;;;;;;4976329;28;20976;-62
2022/03/11 00:42:52;;;;;;;57.30;21.50;;;4.40;19.30;;;;;;4975186;28;20978;-63
2022/03/11 00:45:19;;;;;;;56.30;20.13;;;4.30;19.40;;;;;;4975431;28;20842;-63
2022/03/11 00:47:46;;;;;;;55.53;20.10;;;4.30;19.30;;;;;;4978732;28;20488;-62
2022/03/11 00:50:12;;;;;;;57.10;19.57;;;4.30;19.20;;;;;;4980436;28;20929;-61
2022/03/11 00:52:41;;;;;;;63.00;22.10;;;4.30;19.50;;;;;;4979027;28;20457;-61
2022/03/11 00:55:11;;;;;;;56.63;21.37;;;4.20;19.70;;;;;;4972619;28;20484;-63
2022/03/11 00:57:38;;;;;;;58.17;20.60;;;4.20;19.80;;;;;;4970864;28;20547;-62
2022/03/11 01:00:06;;;;;;;54.90;19.03;;;4.30;19.80;;;;;;4983942;28;20484;-62
2022/03/11 01:02:36;;;;;;;54.70;20.67;;;4.10;20.00;;;;;;4969121;28;20477;-63
2022/03/11 01:05:05;;;;;;;57.87;20.43;;;4.10;20.10;;;;;;4972269;28;20467;-63
2022/03/11 01:07:32;;;;;;;60.27;21.53;;;4.10;19.90;;;;;;4981263;28;20868;-62
2022/03/11 01:09:58;;;;;;;58.33;22.33;;;4.10;20.80;;;;;;4980807;28;20457;-62
2022/03/11 01:12:27;;;;;;;57.20;18.63;;;4.00;19.90;;;;;;4973906;28;20468;-62
2022/03/11 01:14:54;;;;;;;56.90;20.77;;;4.00;20.00;;;;;;4972495;28;20859;-61
2022/03/11 01:17:20;;;;;;;58.73;19.93;;;4.00;19.80;;;;;;4982055;28;20487;-62
2022/03/11 01:19:47;;;;;;;56.50;19.97;;;3.90;19.60;;;;;;4975751;28;20485;-62
2022/03/11 01:22:14;;;;;;;54.00;19.97;;;3.90;19.60;;;;;;4978055;28;20476;-62
2022/03/11 01:24:41;;;;;;;58.07;21.10;;;3.80;19.60;;;;;;4975175;28;20461;-62
2022/03/11 01:27:08;;;;;;;57.07;21.00;;;3.80;19.70;;;;;;4981199;28;20487;-61
2022/03/11 01:29:36;;;;;;;61.80;23.63;;;3.80;19.60;;;;;;4979840;28;20669;-64
2022/03/11 01:32:03;;;;;;;57.97;21.67;;;3.70;19.80;;;;;;4984800;28;20485;-61
2022/03/11 01:34:30;;;;;;;61.13;19.60;;;3.70;19.60;;;;;;4983024;28;20472;-62
2022/03/11 01:36:57;;;;;;;60.17;21.90;;;3.70;19.50;;;;;;4981248;28;20484;-62
2022/03/11 01:39:23;;;;;;;56.87;21.03;;;3.60;19.40;;;;;;4979020;28;20487;-63
2022/03/11 01:41:50;;;;;;;59.13;19.27;;;3.60;19.30;;;;;;4979796;28;20460;-60
2022/03/11 01:44:17;;;;;;;60.37;21.60;;;3.60;19.30;;;;;;4978069;28;20462;-63
2022/03/11 01:46:45;;;;;;;59.57;22.20;;;3.60;19.30;;;;;;4980628;28;20556;-62
2022/03/11 01:49:12;;;;;;;57.10;20.90;;;3.50;19.20;;;;;;4980409;28;20484;-63
2022/03/11 01:51:42;;;;;;;54.30;19.80;;;3.50;19.30;;;;;;4978066;28;20457;-62
2022/03/11 01:54:09;;;;;;;60.40;20.20;;;3.40;19.30;;;;;;4977966;28;20486;-62
2022/03/11 01:56:37;;;;;;;57.87;20.43;;;3.40;19.30;;;;;;4976531;28;20484;-61
2022/03/11 01:59:05;;;;;;;59.03;18.73;;;3.40;19.40;;;;;;4982870;28;20475;-62
2022/03/11 02:01:32;;;;;;;56.73;19.57;;;3.30;20.00;;;;;;4977924;28;20851;-61
2022/03/11 02:04:01;;;;;;;56.37;20.70;;;3.30;19.60;;;;;;4981296;28;20470;-62
2022/03/11 02:06:29;;;;;;;55.30;18.80;;;3.30;19.50;;;;;;4975809;28;20492;-62
2022/03/11 02:08:56;;;;;;;57.33;20.33;;;3.30;19.40;;;;;;4978650;28;20964;-63
2022/03/11 02:11:23;;;;;;;60.53;21.10;;;3.20;19.40;;;;;;4976657;28;20464;-63
2022/03/11 02:13:52;;;;;;;59.33;20.33;;;3.20;19.20;;;;;;4984587;28;20470;-60
2022/03/11 02:16:21;;;;;;;57.47;17.87;;;3.10;19.40;;;;;;4980043;28;20485;-62
2022/03/11 02:18:48;;;;;;;55.93;19.43;;;3.10;19.50;;;;;;4976103;28;21006;-61
2022/03/11 02:21:19;;;;;;;58.30;18.77;;;3.00;19.40;;;;;;4979472;28;20457;-63
2022/03/11 02:23:49;;;;;;;54.97;18.27;;;3.00;19.40;;;;;;4978140;28;21007;-62
2022/03/11 02:26:17;;;;;;;56.67;20.20;;;3.00;19.30;;;;;;4976050;28;20470;-61
2022/03/11 02:28:45;;;;;;;58.10;19.27;;;3.00;19.10;;;;;;4977377;28;20465;-62
2022/03/11 02:31:12;;;;;;;58.90;18.73;;;2.90;19.20;;;;;;4981075;28;20741;-62
2022/03/11 02:33:39;;;;;;;54.90;18.10;;;2.90;19.20;;;;;;4972892;28;20468;-62
2022/03/11 02:36:07;;;;;;;56.03;19.07;;;2.80;19.30;;;;;;4973732;28;20467;-61
2022/03/11 02:38:34;;;;;;;55.23;18.47;;;2.80;19.20;;;;;;4973105;28;20488;-62
2022/03/11 02:41:03;;;;;;;52.83;16.93;;;2.80;19.30;;;;;;4979981;28;20492;-63
2022/03/11 02:43:30;;;;;;;50.87;15.10;;;2.80;19.10;;;;;;4975363;28;20617;-63
2022/03/11 02:45:56;;;;;;;50.17;15.27;;;2.70;18.80;;;;;;4978127;28;20898;-63
2022/03/11 02:48:23;;;;;;;49.90;15.53;;;2.70;18.70;;;;;;4975573;28;20485;-61
2022/03/11 02:50:50;;;;;;;50.90;15.33;;;2.70;18.40;;;;;;4975921;28;20462;-61
2022/03/11 02:53:16;;;;;;;51.87;15.10;;;2.70;18.10;;;;;;4975528;28;21002;-63
2022/03/11 02:55:43;;;;;;;48.20;13.57;;;2.60;18.10;;;;;;4977602;28;20468;-61
2022/03/11 02:58:12;;;;;;;48.80;12.80;;;2.50;18.10;;;;;;4984994;28;20512;-63
2022/03/11 03:00:38;;;;;;;49.70;13.20;;;2.50;18.00;;;;;;4978320;28;21184;-64
2022/03/11 03:03:05;;;;;;;50.00;14.40;;;2.50;17.80;;;;;;4977801;28;20468;-60
2022/03/11 03:05:32;;;;;;;50.53;15.27;;;2.40;17.70;;;;;;4980632;28;20461;-61
2022/03/11 03:07:59;;;;;;;51.37;15.47;;;2.40;17.70;;;;;;5010420;23;20488;-61
2022/03/11 03:10:26;;;;;;;53.30;15.63;;;2.40;17.60;;;;;;4995858;28;20856;-61
2022/03/11 03:12:52;;;;;;;49.83;15.20;;;2.30;17.60;;;;;;4997209;28;20461;-61
2022/03/11 03:15:21;;;;;;;48.97;13.80;;;2.30;17.50;;;;;;4995593;28;20461;-61
2022/03/11 03:17:47;;;;;;;53.03;16.60;;;2.30;17.60;;;;;;4998373;28;20848;-62
2022/03/11 03:20:14;;;;;;;50.37;15.20;;;2.20;17.50;;;;;;4997578;28;20484;-61
2022/03/11 03:22:41;;;;;;;49.10;14.07;;;2.20;17.50;;;;;;4993510;28;20461;-61
2022/03/11 03:25:09;;;;;;;50.37;16.77;;;2.20;17.50;;;;;;4994131;28;20479;-61
2022/03/11 03:27:36;;;;;;;49.90;12.80;;;2.20;17.40;;;;;;4997906;28;20566;-62
2022/03/11 03:30:03;;;;;;;49.00;12.80;;;2.20;17.30;;;;;;4993154;28;20476;-61
2022/03/11 03:32:31;;;;;;;49.43;14.33;;;2.20;17.20;;;;;;4991490;28;20473;-60
2022/03/11 03:34:58;;;;;;;49.77;13.77;;;2.10;17.10;;;;;;4998194;28;20456;-61
2022/03/11 03:37:25;;;;;;;45.40;11.57;;;2.10;17.10;;;;;;4996601;28;20475;-61
2022/03/11 03:39:52;;;;;;;45.47;11.20;;;2.10;17.10;;;;;;4995315;28;20480;-61
2022/03/11 03:42:18;;;;;;;47.07;13.50;;;2.00;17.00;;;;;;5002146;28;20453;-60
2022/03/11 03:44:45;;;;;;;45.77;11.80;;;2.00;16.90;;;;;;5006509;28;20464;-62
2022/03/11 03:47:12;;;;;;;46.97;11.50;;;2.00;16.90;;;;;;4994271;28;20479;-61
2022/03/11 03:49:40;;;;;;;46.20;12.00;;;2.00;16.90;;;;;;4995456;28;20987;-61
2022/03/11 03:52:11;;;;;;;46.63;12.87;;;2.00;16.90;;;;;;4993495;28;20834;-61
2022/03/11 03:54:38;;;;;;;49.33;11.23;;;1.90;16.90;;;;;;4995006;28;20473;-62
2022/03/11 03:57:05;;;;;;;47.23;12.80;;;1.90;16.70;;;;;;4996808;28;20468;-61
2022/03/11 03:59:32;;;;;;;46.83;12.97;;;1.90;16.70;;;;;;4997576;28;20476;-61
2022/03/11 04:01:59;;;;;;;45.53;12.00;;;1.90;16.60;;;;;;4995294;28;20515;-61
2022/03/11 04:04:26;;;;;;;45.80;11.40;;;1.90;16.50;;;;;;4990932;28;20832;-61
2022/03/11 04:06:54;;;;;;;45.30;11.70;;;1.90;16.40;;;;;;4997293;28;20459;-61
2022/03/11 04:09:21;;;;;;;46.30;11.70;;;1.80;16.50;;;;;;4995266;28;20474;-62
2022/03/11 04:11:48;;;;;;;46.73;11.67;;;1.80;16.30;;;;;;4996176;28;20479;-62
2022/03/11 04:14:14;;;;;;;48.90;11.97;;;1.70;16.30;;;;;;4997040;28;21181;-61
2022/03/11 04:16:41;;;;;;;44.57;10.30;;;1.70;16.20;;;;;;4998859;28;20463;-62
2022/03/11 04:19:08;;;;;;;49.00;10.77;;;1.70;16.20;;;;;;4997367;28;20476;-59
2022/03/11 04:21:35;;;;;;;42.60;10.10;;;1.70;16.20;;;;;;5002192;28;20837;-62
2022/03/11 04:24:12;;;;;;;43.60;10.20;;;1.70;16.10;;;;;;4994983;28;20471;-59
2022/03/11 04:26:40;;;;;;;41.30;9.40;;;1.60;16.20;;;;;;4995979;28;20492;-61
2022/03/11 04:29:07;;;;;;;45.40;10.20;;;1.60;16.20;;;;;;5000635;28;20538;-62
2022/03/11 04:31:33;;;;;;;44.00;10.07;;;1.50;16.20;;;;;;5000295;28;20852;-61
2022/03/11 04:34:00;;;;;;;44.63;10.90;;;1.50;16.20;;;;;;4993235;28;20461;-60
2022/03/11 04:36:28;;;;;;;45.60;10.60;;;1.40;16.10;;;;;;4992564;28;20460;-60
2022/03/11 04:38:55;;;;;;;42.97;10.73;;;1.40;16.00;;;;;;4993420;28;20527;-59
2022/03/11 04:41:23;;;;;;;42.90;10.10;;;1.40;16.00;;;;;;5000545;28;20480;-60
2022/03/11 04:43:50;;;;;;;45.00;8.10;;;1.40;15.80;;;;;;5000885;28;20471;-59
2022/03/11 04:46:17;;;;;;;44.80;10.30;;;1.30;15.80;;;;;;4995877;28;20456;-61
2022/03/11 04:48:47;;;;;;;46.10;10.53;;;1.30;15.70;;;;;;4996250;28;20484;-60
2022/03/11 04:51:14;;;;;;;43.10;10.00;;;1.20;15.70;;;;;;4993765;28;20460;-60
2022/03/11 04:53:41;;;;;;;44.00;10.20;;;1.20;15.60;;;;;;4994524;28;20512;-60
2022/03/11 04:56:07;;;;;;;41.60;8.60;;;1.20;15.60;;;;;;4992402;28;20459;-60
2022/03/11 04:58:36;;;;;;;43.40;9.07;;;1.20;15.60;;;;;;4994228;28;21030;-61
2022/03/11 05:01:02;;;;;;;43.90;12.00;;;1.20;15.60;;;;;;4997352;28;20495;-61
2022/03/11 05:03:29;;;;;;;45.10;10.20;;;1.10;15.70;;;;;;4993268;28;20831;-59
2022/03/11 05:05:56;;;;;;;51.20;10.97;;;1.10;15.70;;;;;;4999961;28;20467;-59
2022/03/11 05:08:23;;;;;;;47.83;11.70;;;1.10;15.90;;;;;;4998272;28;20488;-60
2022/03/11 05:10:49;;;;;;;47.57;12.43;;;1.10;16.00;;;;;;4999393;28;20463;-59
2022/03/11 05:13:16;;;;;;;46.63;12.60;;;1.00;16.30;;;;;;4997258;28;20654;-59
2022/03/11 05:15:44;;;;;;;53.10;13.47;;;1.00;16.60;;;;;;4995560;28;20467;-59
2022/03/11 05:18:12;;;;;;;48.80;12.40;;;0.90;16.80;;;;;;5001630;28;20512;-60
2022/03/11 05:20:39;;;;;;;47.90;12.27;;;0.90;17.00;;;;;;5001399;28;20507;-61
2022/03/11 05:23:05;;;;;;;48.13;12.90;;;0.80;17.20;;;;;;4993041;28;20474;-60
2022/03/11 05:25:32;;;;;;;46.10;10.87;;;0.80;17.20;;;;;;5001437;28;20465;-60
2022/03/11 05:27:59;;;;;;;48.27;13.77;;;0.80;17.20;;;;;;5002287;28;20484;-58
2022/03/11 05:30:26;;;;;;;45.73;10.77;;;0.70;17.30;;;;;;4997869;28;21288;-61
2022/03/11 05:32:54;;;;;;;48.17;12.50;;;0.70;17.30;;;;;;4995523;28;20472;-59
2022/03/11 05:35:21;;;;;;;46.80;12.10;;;0.70;17.30;;;;;;4998939;28;20459;-59
2022/03/11 05:37:48;;;;;;;45.60;10.80;;;0.70;17.40;;;;;;4996927;28;20986;-64
2022/03/11 05:40:15;;;;;;;46.60;11.87;;;0.70;17.40;;;;;;5000934;28;20488;-64
2022/03/11 05:42:42;;;;;;;46.80;14.23;;;0.70;17.50;;;;;;4998413;28;20461;-64
2022/03/11 05:45:10;;;;;;;50.83;12.00;;;0.70;17.60;;;;;;4999346;28;20468;-63
2022/03/11 05:47:37;;;;;;;45.40;11.90;;;0.70;17.70;;;;;;4995559;28;20562;-63
2022/03/11 05:50:06;;;;;;;46.43;13.10;;;0.70;17.80;;;;;;4997215;28;20452;-69
2022/03/11 05:52:36;;;;;;;47.10;10.87;;;0.70;17.80;;;;;;4994087;28;20461;-63
2022/03/11 05:55:03;;;;;;;43.07;11.30;;;0.70;17.90;;;;;;5000364;28;20898;-62
2022/03/11 05:57:30;;;;;;;47.27;10.53;;;0.80;17.90;;;;;;4997220;28;20487;-62
2022/03/11 05:59:57;;;;;;;43.37;12.10;;;1.00;17.70;;;;;;4993312;28;20503;-64
2022/03/11 06:02:24;;;;;;;46.30;12.30;;;1.10;17.70;;;;;;4994378;28;20483;-63
2022/03/11 06:04:50;;;;;;;44.10;9.40;;;1.30;17.60;;;;;;5003497;28;20460;-63
2022/03/11 06:07:19;;;;;;;45.43;10.13;;;1.40;17.40;;;;;;4997188;28;20480;-64
2022/03/11 06:09:47;;;;;;;43.70;10.57;;;1.60;17.30;;;;;;5002096;28;20468;-60
2022/03/11 06:12:13;;;;;;;44.00;11.50;;;1.80;17.00;;;;;;4998787;28;20522;-60
2022/03/11 06:14:40;;;;;;;44.87;11.17;;;2.10;16.50;;;;;;4997084;28;20455;-60
2022/03/11 06:17:07;;;;;;;44.00;9.63;;;2.40;15.80;;;;;;4999577;28;20467;-62
2022/03/11 06:19:34;;;;;;;49.13;11.07;;;2.80;14.90;;;;;;4998912;28;20472;-62
2022/03/11 06:22:00;;;;;;;43.57;10.67;;;3.50;13.80;;;;;;5004577;28;20515;-61
2022/03/11 06:24:29;;;;;;;40.93;9.43;;;4.30;12.60;;;;;;5001675;28;20499;-59
2022/03/11 06:26:55;;;;;;;46.50;11.00;;;5.10;11.30;;;;;;5003153;28;20938;-60
2022/03/11 06:29:22;;;;;;;45.00;10.40;;;6.00;9.80;;;;;;5003543;28;20465;-61
2022/03/11 06:31:49;;;;;;;41.07;9.40;;;6.80;8.40;;;;;;5000920;28;20491;-63
2022/03/11 06:34:16;;;;;;;41.23;8.80;;;7.10;7.60;;;;;;5003132;28;20460;-62
2022/03/11 06:36:42;;;;;;;41.50;11.07;;;7.60;7.20;;;;;;4999990;28;20523;-62
2022/03/11 06:39:11;;;;;;;40.47;9.90;;;7.90;6.40;;;;;;5001095;28;20996;-60
2022/03/11 06:41:39;;;;;;;44.73;10.03;;;8.00;5.70;;;;;;5005292;28;20487;-60
2022/03/11 06:44:06;;;;;;;40.20;9.37;;;8.20;5.70;;;;;;5001761;28;20499;-61
2022/03/11 06:46:33;;;;;;;40.90;10.03;;;8.30;5.50;;;;;;5003333;28;21116;-61
2022/03/11 06:49:00;;;;;;;38.57;9.20;;;8.30;5.40;;;;;;4999775;28;20850;-63
2022/03/11 06:51:26;;;;;;;44.43;16.73;;;8.40;5.40;;;;;;4999844;28;20460;-63
2022/03/11 06:53:53;;;;;;;38.80;9.47;;;8.40;5.60;;;;;;5000018;28;20452;-59
2022/03/11 06:56:20;;;;;;;39.07;8.90;;;8.50;5.60;;;;;;5001129;28;20492;-62
2022/03/11 06:58:48;;;;;;;40.30;9.27;;;8.60;5.40;;;;;;5000478;28;20586;-63
2022/03/11 07:01:16;;;;;;;40.80;8.27;;;8.80;5.20;;;;;;5003713;28;20492;-60
2022/03/11 07:03:43;;;;;;;38.00;8.93;;;9.00;4.80;;;;;;4995187;28;20483;-62
2022/03/11 07:06:10;;;;;;;42.43;9.40;;;9.20;4.50;;;;;;5002097;28;20475;-62
2022/03/11 07:08:37;;;;;;;39.53;9.27;;;9.50;4.10;;;;;;4998818;28;20499;-62
2022/03/11 07:11:03;;;;;;;40.80;9.17;;;9.80;3.50;;;;;;5000300;28;20460;-60
2022/03/11 07:13:31;;;;;;;38.77;9.27;;;10.40;2.70;;;;;;5000417;28;20463;-62
2022/03/11 07:15:59;;;;;;;39.27;9.60;;;11.10;1.70;;;;;;5004020;28;20456;-61
2022/03/11 07:18:26;;;;;;;40.27;8.80;;;11.40;1.00;;;;;;4999436;28;20499;-62
2022/03/11 07:20:52;;;;;;;40.50;8.83;;;11.60;1.00;;;;;;5001875;28;20541;-64
2022/03/11 07:23:19;;;;;;;40.20;10.10;;;11.90;1.00;;;;;;4991763;28;20995;-61
2022/03/11 07:25:46;;;;;;;36.67;7.73;;;12.30;1.00;;;;;;4994957;28;20480;-61
2022/03/11 07:28:13;;;;;;;38.17;8.67;;;12.90;1.00;;;;;;5001824;28;20468;-65
2022/03/11 07:30:40;;;;;;;38.60;9.77;;;13.90;1.00;;;;;;4996034;28;22348;-61
2022/03/11 07:33:11;;;;;;;36.73;9.90;;;15.20;1.00;;;;;;4999650;28;20456;-62
2022/03/11 07:35:37;;;;;;;36.50;9.07;;;16.50;1.00;;;;;;4999316;28;20467;-65
2022/03/11 07:38:04;;;;;;;35.57;10.50;;;17.80;1.00;;;;;;4998752;28;20476;-69
2022/03/11 07:40:31;;;;;;;34.57;8.63;;;19.10;1.00;;;;;;5001524;28;20492;-61
2022/03/11 07:42:58;;;;;;;35.60;9.13;;;20.20;1.00;;;;;;5000890;28;20467;-63
2022/03/11 07:45:25;;;;;;;35.37;8.23;;;21.40;1.00;;;;;;4999985;28;21100;-64
2022/03/11 07:47:52;;;;;;;38.83;9.20;;;22.60;1.00;;;;;;4999739;28;20859;-65
2022/03/11 07:50:21;;;;;;;35.07;9.73;;;23.50;1.00;;;;;;5001786;28;20465;-68
2022/03/11 07:52:48;;;;;;;34.57;9.10;;;24.60;1.00;;;;;;5003070;28;20482;-67
2022/03/11 07:55:16;;;;;;;33.17;8.20;;;25.60;1.00;;;;;;5003345;28;21017;-67
2022/03/11 07:57:43;;;;;;;34.13;8.17;;;26.40;1.00;;;;;;4996693;28;20571;-65
2022/03/11 08:00:13;;;;;;;33.50;9.23;;;27.30;1.00;;;;;;4998988;28;20468;-65
2022/03/11 08:02:41;;;;;;;33.80;8.57;;;27.80;1.00;;;;;;5001478;28;20456;-64
2022/03/11 08:05:14;;;;;;;33.00;9.40;;;28.10;1.00;;;;;;4998036;28;20464;-61
2022/03/11 08:07:45;;;;;;;35.87;9.10;;;28.30;1.00;;;;;;4994160;28;20484;-62
2022/03/11 08:10:12;;;;;;;33.73;9.40;;;29.00;1.00;;;;;;4995259;28;20526;-65
2022/03/11 08:12:39;;;;;;;34.80;9.10;;;29.20;1.00;;;;;;5003409;28;20471;-63
2022/03/11 08:15:07;;;;;;;33.50;9.90;;;29.30;1.00;;;;;;5000040;28;20463;-62
2022/03/11 08:17:34;;;;;;;33.60;10.27;;;29.80;1.00;;;;;;4994854;28;20480;-63
2022/03/11 08:20:02;;;;;;;33.63;10.10;;;30.30;1.00;;;;;;4999461;28;20472;-62
2022/03/11 08:22:29;;;;;;;32.37;9.17;;;30.90;1.00;;;;;;4994513;28;21089;-61
2022/03/11 08:24:57;;;;;;;33.33;9.60;;;31.60;1.00;;;;;;4999129;28;20459;-62
2022/03/11 08:27:25;;;;;;;30.57;8.30;;;31.90;1.00;;;;;;5000594;28;20516;-62
2022/03/11 08:29:51;;;;;;;31.87;9.07;;;32.10;1.00;;;;;;4997893;28;20464;-62
2022/03/11 08:32:18;;;;;;;38.27;9.40;;;32.70;1.00;;;;;;4992798;28;20495;-62
2022/03/11 08:34:45;;;;;;;30.77;9.00;;;33.60;1.00;;;;;;4997579;28;20459;-60
2022/03/11 08:37:12;;;;;;;32.00;9.87;;;34.40;1.00;;;;;;4995445;28;20460;-61
2022/03/11 08:39:38;;;;;;;31.80;8.40;;;34.80;1.00;;;;;;4998133;28;20487;-62
2022/03/11 08:42:07;;;;;;;30.60;9.40;;;35.20;1.00;;;;;;4998056;28;20494;-62
2022/03/11 08:44:34;;;;;;;30.63;9.27;;;35.20;1.00;;;;;;4995299;28;20466;-61
2022/03/11 08:47:01;;;;;;;32.10;9.50;;;34.60;1.00;;;;;;5001619;28;20526;-62
2022/03/11 08:49:28;;;;;;;30.03;9.60;;;34.60;1.00;;;;;;4990873;28;20472;-61
2022/03/11 08:51:54;;;;;;;30.80;10.60;;;34.70;1.00;;;;;;4996792;28;20466;-62
2022/03/11 08:54:21;;;;;;;32.30;9.57;;;34.10;1.00;;;;;;5003216;28;20456;-60
2022/03/11 08:56:48;;;;;;;31.43;10.60;;;33.70;1.00;;;;;;4999145;28;20563;-60
2022/03/11 08:59:16;;;;;;;32.10;10.00;;;34.00;1.00;;;;;;4996991;28;20498;-61
2022/03/11 09:01:43;;;;;;;32.60;10.70;;;34.20;1.00;;;;;;4999451;28;20754;-60
2022/03/11 09:04:09;;;;;;;32.43;10.10;;;34.60;1.00;;;;;;4997914;28;20475;-60
2022/03/11 09:06:36;;;;;;;30.57;9.43;;;34.90;1.00;;;;;;4999121;28;20479;-60
2022/03/11 09:09:03;;;;;;;31.10;10.60;;;35.30;1.00;;;;;;4996306;28;21009;-60
2022/03/11 09:11:30;;;;;;;31.73;9.17;;;35.40;1.00;;;;;;4995557;28;20456;-61
2022/03/11 09:13:56;;;;;;;31.10;9.37;;;35.70;1.00;;;;;;4995148;28;20477;-60
2022/03/11 09:16:24;;;;;;;30.90;8.50;;;36.20;1.00;;;;;;4997221;28;20474;-60
2022/03/11 09:18:52;;;;;;;31.13;9.70;;;36.70;1.00;;;;;;4997780;28;20479;-60
2022/03/11 09:21:18;;;;;;;31.90;10.80;;;37.10;1.00;;;;;;4994218;28;20493;-60
2022/03/11 09:23:47;;;;;;;31.47;10.60;;;36.70;1.00;;;;;;5001810;28;20466;-60
2022/03/11 09:26:13;;;;;;;31.13;10.00;;;36.50;1.00;;;;;;4998624;28;20566;-61
2022/03/11 09:28:40;;;;;;;32.00;10.93;;;36.80;1.00;;;;;;4998488;28;20494;-62
2022/03/11 09:31:09;;;;;;;31.33;10.90;;;36.50;1.00;;;;;;4996107;28;20464;-62
2022/03/11 09:33:38;;;;;;;30.90;10.27;;;36.80;1.00;;;;;;4995126;28;21076;-64
2022/03/11 09:36:06;;;;;;;31.27;10.10;;;37.10;1.00;;;;;;4996326;28;20464;-62
2022/03/11 09:38:36;;;;;;;31.20;11.57;;;36.70;1.00;;;;;;4991001;28;20482;-63
2022/03/11 09:41:03;;;;;;;31.23;10.20;;;36.70;1.00;;;;;;4999503;28;20546;-60
2022/03/11 09:43:30;;;;;;;32.30;11.47;;;36.90;1.00;;;;;;5000769;28;20463;-62
2022/03/11 09:45:58;;;;;;;31.90;9.90;;;37.30;1.00;;;;;;5006854;28;20460;-63
2022/03/11 09:48:25;;;;;;;32.27;10.60;;;37.20;1.00;;;;;;5001274;28;21153;-63
2022/03/11 09:50:54;;;;;;;32.00;10.27;;;36.90;1.00;;;;;;5000309;28;20467;-62
2022/03/11 09:53:20;;;;;;;31.17;10.10;;;36.00;1.00;;;;;;5007893;28;20461;-60
2022/03/11 09:55:47;;;;;;;31.50;10.43;;;36.00;1.00;;;;;;5001906;28;20478;-62
2022/03/11 09:58:14;;;;;;;31.30;9.73;;;36.40;1.00;;;;;;4995523;28;20484;-61
2022/03/11 10:00:41;;;;;;;31.30;10.03;;;36.10;1.00;;;;;;4993938;28;20484;-62
2022/03/11 10:03:08;;;;;;;30.70;9.27;;;36.20;1.00;;;;;;4998546;28;20577;-62
2022/03/11 10:05:48;;;;;;;31.80;10.60;;;36.70;1.00;;;;;;5001728;28;20954;-63
2022/03/11 10:08:16;;;;;;;31.20;9.60;;;37.60;1.00;;;;;;5008266;28;20497;-61
2022/03/11 10:10:44;;;;;;;31.90;10.47;;;38.20;1.00;;;;;;4998332;28;20838;-62
2022/03/11 10:13:12;;;;;;;30.60;10.13;;;38.40;1.00;;;;;;5004947;28;20459;-63
2022/03/11 10:15:40;;;;;;;32.13;10.83;;;37.60;1.00;;;;;;4997601;28;20458;-61
2022/03/11 10:18:11;;;;;;;31.27;10.57;;;37.50;1.00;;;;;;5000227;28;20953;-61
2022/03/11 10:20:38;;;;;;;30.20;10.20;;;37.40;1.00;;;;;;4995633;28;21313;-60
2022/03/11 10:23:09;;;;;;;30.53;10.77;;;37.80;1.00;;;;;;5000213;28;20486;-62
2022/03/11 10:25:38;;;;;;;30.93;11.30;;;38.30;1.00;;;;;;4992849;28;21094;-61
2022/03/11 10:28:08;;;;;;;33.60;11.60;;;38.30;1.00;;;;;;5002096;28;20486;-64
2022/03/11 10:30:36;;;;;;;31.87;11.43;;;38.00;1.00;;;;;;4993936;28;20479;-61
2022/03/11 10:33:06;;;;;;;33.23;10.30;;;38.10;1.00;;;;;;4998876;28;20467;-59
2022/03/11 10:35:36;;;;;;;32.00;10.67;;;37.80;1.00;;;;;;4997810;28;20472;-61
2022/03/11 10:38:05;;;;;;;31.17;11.43;;;37.10;1.00;;;;;;4998742;28;20484;-63
2022/03/11 10:40:33;;;;;;;32.70;10.00;;;36.70;1.00;;;;;;4999072;28;20464;-60
2022/03/11 10:43:13;;;;;;;32.80;11.27;;;36.70;1.00;;;;;;4997862;28;20484;-62
2022/03/11 10:45:48;;;;;;;30.50;9.63;;;37.00;1.00;;;;;;5004267;28;20517;-62
2022/03/11 10:48:15;;;;;;;30.43;9.97;;;37.30;1.00;;;;;;4997902;28;20483;-61
2022/03/11 10:50:42;;;;;;;32.70;10.90;;;37.20;1.00;;;;;;5003421;28;20773;-62
2022/03/11 10:53:11;;;;;;;32.03;10.63;;;37.00;1.00;;;;;;5002787;28;20464;-62
2022/03/11 10:55:41;;;;;;;34.67;10.83;;;36.10;1.00;;;;;;4996505;28;20472;-60
2022/03/11 10:58:09;;;;;;;31.70;10.97;;;35.40;1.00;;;;;;4996767;28;21297;-61
2022/03/11 11:00:39;;;;;;;33.40;10.70;;;35.00;1.00;;;;;;5006036;23;20460;-67
2022/03/11 11:03:08;;;;;;;32.70;10.80;;;34.50;1.00;;;;;;5000732;28;20491;-69
2022/03/11 11:05:36;;;;;;;34.70;10.43;;;33.90;1.00;;;;;;4989531;28;20485;-69
2022/03/11 11:08:05;;;;;;;32.00;11.27;;;33.60;1.00;;;;;;4990285;28;20461;-69
2022/03/11 11:10:34;;;;;;;32.63;10.53;;;33.50;1.00;;;;;;4989159;28;20471;-69
2022/03/11 11:13:00;;;;;;;33.63;10.67;;;33.70;1.00;;;;;;4995289;28;21085;-69
2022/03/11 11:15:27;;;;;;;34.33;10.80;;;33.80;1.00;;;;;;5015016;28;20477;-69
2022/03/11 11:17:56;;;;;;;32.57;9.27;;;33.60;1.00;;;;;;5012622;28;20464;-69
2022/03/11 11:20:25;;;;;;;34.13;10.73;;;33.20;1.00;;;;;;5009100;28;20464;-69
2022/03/11 11:22:53;;;;;;;35.47;11.37;;;33.00;1.00;;;;;;5008224;28;20488;-70
2022/03/11 11:25:22;;;;;;;36.13;10.30;;;33.00;1.00;;;;;;5009487;28;20480;-69
2022/03/11 11:27:49;;;;;;;33.87;11.13;;;33.10;1.00;;;;;;5008243;28;20586;-69
2022/03/11 11:30:19;;;;;;;34.10;10.77;;;33.20;1.00;;;;;;5007909;28;20456;-69
2022/03/11 11:32:46;;;;;;;36.03;11.50;;;33.10;1.00;;;;;;5008479;28;20533;-69
2022/03/11 11:35:29;;;;;;;34.07;10.80;;;32.70;1.00;;;;;;5008819;28;20935;-69
2022/03/11 11:37:57;;;;;;;33.50;10.60;;;31.50;1.00;;;;;;5008443;28;20464;-69
2022/03/11 11:40:26;;;;;;;37.33;11.93;;;29.80;1.00;;;;;;5008833;28;20510;-69
2022/03/11 11:43:26;;;;;;;37.80;10.47;;;28.60;1.00;;;;;;5008321;28;20710;-69
2022/03/11 11:45:55;;;;;;;37.17;11.97;;;27.90;1.00;;;;;;5008281;28;20549;-69
2022/03/11 11:48:57;;;;;;;36.47;11.57;;;27.10;1.00;;;;;;5007675;28;20487;-66
2022/03/11 11:51:55;;;;;;;36.87;10.10;;;26.60;1.00;;;;;;4990477;28;20456;-66
2022/03/11 11:57:46;;;;;;;34.50;10.90;;;26.10;1.00;;;;;;5008234;28;20448;-66
2022/03/11 12:00:35;;;;;;;36.20;11.30;;;26.10;1.00;;;;;;5007372;28;21034;-67
2022/03/11 12:03:03;;;;;;;36.30;11.60;;;25.50;1.00;;;;;;5007100;28;20534;-66
2022/03/11 12:05:44;;;;;;;37.50;12.40;;;24.80;1.00;;;;;;5008351;28;20506;-66
2022/03/11 12:08:50;;;;;;;37.13;10.97;;;24.10;1.00;;;;;;5008331;28;20455;-66
2022/03/11 12:11:40;;;;;;;39.20;11.70;;;23.20;1.00;;;;;;5008583;28;20464;-70
2022/03/11 12:14:06;;;;;;;39.80;13.30;;;22.40;1.00;;;;;;5008460;28;21051;-68
2022/03/11 12:17:05;;;;;;;37.40;11.33;;;21.80;1.00;;;;;;5009002;28;20459;-68
2022/03/11 12:19:39;;;;;;;37.17;11.70;;;21.60;1.00;;;;;;5008667;28;20506;-68
2022/03/11 12:22:33;;;;;;;36.67;11.47;;;21.80;1.00;;;;;;5007503;28;21030;-69
2022/03/11 12:25:07;;;;;;;37.50;12.20;;;21.20;1.00;;;;;;5007684;28;20482;-68
2022/03/11 12:27:59;;;;;;;38.67;12.30;;;20.40;1.00;;;;;;5007910;28;20455;-68
2022/03/11 12:30:26;;;;;;;36.83;11.77;;;19.40;1.00;;;;;;4989762;28;20473;-68
2022/03/11 12:32:53;;;;;;;39.80;11.90;;;18.70;1.00;;;;;;5008202;28;20455;-67
2022/03/11 12:35:22;;;;;;;37.30;11.57;;;18.20;1.00;;;;;;5008683;28;20480;-69
2022/03/11 12:37:49;;;;;;;40.17;11.60;;;17.70;1.00;;;;;;5008251;28;21127;-70
2022/03/11 12:40:20;;;;;;;41.27;12.07;;;17.20;1.00;;;;;;5007589;28;20960;-69
2022/03/11 12:42:47;;;;;;;40.00;12.30;;;16.70;1.00;;;;;;5006558;28;20980;-67
2022/03/11 12:45:15;;;;;;;38.43;11.50;;;16.30;1.00;;;;;;5007255;28;20482;-70
2022/03/11 12:47:42;;;;;;;39.87;12.50;;;15.90;1.00;;;;;;5008252;28;20506;-69
2022/03/11 12:50:22;;;;;;;40.30;11.90;;;15.70;1.00;;;;;;5007392;28;20467;-69